Time;durP1;ratioP1;P1;durP2;ratioP2;P2;SDS_P1;SDS_P2;PMS_P1;PMS_P2;Temp;Humidity;BMP_temperature;BMP_pressure;BME280_temperature;BME280_humidity;BME280_pressure;Samples;Min_cycle;Max_cycle;Signal;HPM_P1;HPM_P2
2022/03/18 00:02:22;;;;;;;22.67;11.48;;;;;;;3.34;44.17;102028.56;5010216;28;106026;-69
2022/03/18 00:04:49;;;;;;;19.42;11.15;;;;;;;3.32;43.92;102024.28;5009791;28;105802;-71
2022/03/18 00:07:15;;;;;;;21.58;11.48;;;;;;;3.29;44.00;102027.09;5008236;28;106854;-71
2022/03/18 00:09:41;;;;;;;20.73;11.23;;;;;;;3.26;44.17;102032.50;5009223;28;105852;-72
2022/03/18 00:12:11;;;;;;;20.13;12.10;;;;;;;3.22;44.29;102034.44;5009098;28;106125;-70
2022/03/18 00:14:39;;;;;;;22.67;12.10;;;;;;;3.19;44.22;102034.59;5009380;28;106422;-71
2022/03/18 00:17:09;;;;;;;20.58;11.43;;;;;;;3.17;44.52;102037.31;5008499;28;106027;-72
2022/03/18 00:19:35;;;;;;;19.90;10.50;;;;;;;3.17;44.49;102039.06;5008977;28;106111;-76
2022/03/18 00:22:01;;;;;;;20.42;11.27;;;;;;;3.14;44.27;102036.59;5009582;28;106184;-71
2022/03/18 00:24:32;;;;;;;18.33;11.80;;;;;;;3.12;44.20;102041.13;5008319;28;105940;-70
2022/03/18 00:27:03;;;;;;;19.58;12.02;;;;;;;3.11;44.57;102036.78;5008376;28;107962;-70
2022/03/18 00:29:29;;;;;;;23.40;11.75;;;;;;;3.09;44.59;102044.75;5007979;28;106050;-71
2022/03/18 00:31:54;;;;;;;22.40;11.63;;;;;;;3.08;44.68;102047.47;5008193;28;105763;-73
2022/03/18 00:34:20;;;;;;;20.23;11.77;;;;;;;3.05;44.86;102046.66;5009302;28;105932;-73
2022/03/18 00:36:46;;;;;;;19.27;11.00;;;;;;;3.03;44.38;102051.19;5008730;28;106023;-72
2022/03/18 00:39:11;;;;;;;23.20;11.07;;;;;;;3.02;44.64;102051.22;5007617;28;106174;-72
2022/03/18 00:41:37;;;;;;;17.92;11.13;;;;;;;2.99;44.49;102047.00;5008741;28;106201;-70
2022/03/18 00:44:03;;;;;;;21.00;11.52;;;;;;;3.01;44.74;102057.44;5008944;28;106167;-76
2022/03/18 00:46:28;;;;;;;19.35;11.05;;;;;;;2.99;44.71;102048.75;5008515;28;107222;-71
2022/03/18 00:54:22;;;;;;;18.58;10.13;;;;;;;2.95;44.89;102045.41;5009284;28;105983;-73
2022/03/18 00:56:47;;;;;;;19.27;10.82;;;;;;;2.94;44.69;102043.72;5009225;28;105754;-73
2022/03/18 00:59:13;;;;;;;23.60;10.85;;;;;;;2.93;44.96;102043.81;5008516;28;105988;-73
2022/03/18 01:01:38;;;;;;;18.63;10.90;;;;;;;2.92;44.96;102045.56;5009584;28;106098;-74
2022/03/18 01:04:04;;;;;;;20.17;10.77;;;;;;;2.89;45.05;102048.34;5016682;28;106192;-71
2022/03/18 01:06:34;;;;;;;17.80;10.05;;;;;;;2.86;44.86;102054.63;5018638;28;106350;-73
2022/03/18 01:09:02;;;;;;;17.75;10.57;;;;;;;2.86;45.05;102048.50;5016634;28;106032;-74
2022/03/18 01:11:29;;;;;;;25.58;10.93;;;;;;;2.84;44.78;102047.72;5017512;28;105954;-77
2022/03/18 01:13:54;;;;;;;21.83;11.23;;;;;;;2.84;44.68;102052.97;5028498;28;106138;-73
2022/03/18 01:16:19;;;;;;;19.98;11.30;;;;;;;2.82;44.72;102062.75;5027916;28;118302;-72
2022/03/18 01:18:45;;;;;;;15.88;10.57;;;;;;;2.81;45.26;102061.88;5028129;28;125301;-72
2022/03/18 01:21:10;;;;;;;22.45;10.93;;;;;;;2.80;44.78;102059.31;5028467;28;106273;-73
2022/03/18 01:23:35;;;;;;;21.55;10.25;;;;;;;2.78;44.82;102050.66;5028468;28;106163;-72
2022/03/18 01:26:01;;;;;;;21.70;10.40;;;;;;;2.77;44.73;102054.22;5027344;28;120657;-73
2022/03/18 01:28:30;;;;;;;20.02;11.38;;;;;;;2.75;45.01;102056.03;5028116;28;106325;-74
2022/03/18 01:30:56;;;;;;;19.50;10.05;;;;;;;2.72;45.08;102062.34;5028329;28;105978;-71
2022/03/18 01:33:21;;;;;;;27.95;10.68;;;;;;;2.71;44.89;102061.47;5027862;28;105962;-72
2022/03/18 01:35:46;;;;;;;18.80;10.15;;;;;;;2.69;44.99;102062.47;5027885;28;105939;-70
2022/03/18 01:38:12;;;;;;;22.08;12.23;;;;;;;2.67;45.15;102067.81;5028124;28;105995;-74
2022/03/18 01:40:37;;;;;;;20.35;11.13;;;;;;;2.66;45.37;102071.34;5028514;28;106066;-71
2022/03/18 01:43:07;;;;;;;21.73;12.27;;;;;;;2.66;45.21;102068.72;5028047;28;105784;-71
2022/03/18 01:45:32;;;;;;;19.50;10.43;;;;;;;2.63;45.10;102068.88;5027010;28;105922;-72
2022/03/18 01:47:58;;;;;;;20.67;11.05;;;;;;;2.62;45.56;102074.22;5027490;28;105842;-73
2022/03/18 01:50:23;;;;;;;21.20;11.63;;;;;;;2.58;45.40;102062.97;5027658;27;106249;-71
2022/03/18 01:52:48;;;;;;;21.52;10.85;;;;;;;2.57;45.42;102069.19;5027909;28;106102;-73
2022/03/18 01:55:15;;;;;;;16.50;10.63;;;;;;;2.54;45.64;102066.66;5027700;28;106670;-71
2022/03/18 01:57:43;;;;;;;21.90;12.18;;;;;;;2.50;45.46;102071.25;5027796;28;106117;-75
2022/03/18 02:00:09;;;;;;;17.77;11.52;;;;;;;2.48;45.73;102072.22;5028907;28;106012;-72
2022/03/18 02:02:34;;;;;;;21.20;10.82;;;;;;;2.44;45.57;102073.28;5027989;28;106142;-72
2022/03/18 02:04:59;;;;;;;23.33;11.82;;;;;;;2.41;45.57;102078.72;5027464;28;108829;-72
2022/03/18 02:07:25;;;;;;;20.40;11.65;;;;;;;2.39;45.76;102076.13;5027622;28;105954;-79
2022/03/18 02:09:50;;;;;;;16.88;9.88;;;;;;;2.35;45.59;102075.44;5028433;28;105958;-78
2022/03/18 02:12:15;;;;;;;21.92;11.38;;;;;;;2.32;45.56;102074.72;5009146;28;106775;-71
2022/03/18 02:14:46;;;;;;;22.42;11.20;;;;;;;2.29;46.04;102091.47;5026606;28;106059;-73
2022/03/18 02:17:12;;;;;;;;;;;;;;;2.26;45.92;102080.25;5027711;28;105968;-73
2022/03/18 02:19:40;;;;;;;17.80;10.55;;;;;;;2.21;45.60;102080.44;5031069;27;106440;-76
2022/03/18 02:22:15;;;;;;;20.90;11.07;;;;;;;2.18;45.79;102086.69;5031119;28;105846;-71
2022/03/18 02:24:42;;;;;;;19.75;11.25;;;;;;;2.15;45.78;102088.63;5030555;28;106031;-70
2022/03/18 02:27:08;;;;;;;21.73;11.05;;;;;;;2.12;45.89;102094.00;5031029;28;106055;-72
2022/03/18 02:29:34;;;;;;;20.33;10.95;;;;;;;2.07;45.66;102096.84;5031589;28;105854;-72
2022/03/18 02:32:01;;;;;;;22.92;11.77;;;;;;;2.05;46.07;102103.09;5030765;28;106087;-71
2022/03/18 02:34:27;;;;;;;21.17;11.55;;;;;;;2.00;46.09;102103.31;5030649;28;106093;-71
2022/03/18 02:36:53;;;;;;;22.50;11.20;;;;;;;1.96;45.98;102110.47;5030348;28;106519;-72
2022/03/18 02:39:18;;;;;;;21.63;11.55;;;;;;;1.92;46.09;102108.91;5031389;28;106266;-76
2022/03/18 02:41:43;;;;;;;16.85;10.82;;;;;;;1.89;46.00;102108.16;5030998;28;106145;-71
2022/03/18 02:44:09;;;;;;;21.02;11.02;;;;;;;1.86;46.29;102122.31;5030736;28;105922;-71
2022/03/18 02:46:34;;;;;;;23.73;10.88;;;;;;;1.83;46.11;102125.06;5030660;28;105884;-71
2022/03/18 02:49:01;;;;;;;18.35;10.88;;;;;;;1.80;46.19;102117.31;5031322;28;105972;-71
2022/03/18 02:51:27;;;;;;;14.60;9.32;;;;;;;1.79;46.09;102123.47;5030223;28;106205;-71
2022/03/18 02:53:53;;;;;;;19.33;11.07;;;;;;;1.76;46.07;102126.25;5031080;28;106571;-71
2022/03/18 02:56:19;;;;;;;19.48;10.65;;;;;;;1.73;46.03;102127.22;5030548;28;105887;-72
2022/03/18 02:58:45;;;;;;;17.35;10.52;;;;;;;1.69;46.05;102128.28;5031462;28;105805;-71
2022/03/18 03:01:10;;;;;;;18.08;10.75;;;;;;;1.67;46.14;102130.13;5030548;28;106121;-74
2022/03/18 03:03:35;;;;;;;21.52;10.55;;;;;;;1.63;46.19;102136.44;5011623;28;121394;-75
2022/03/18 03:08:58;;;;;;;20.20;10.25;;;;;;;1.55;46.25;102134.13;4996164;28;106419;-72
2022/03/18 03:11:24;;;;;;;21.55;11.30;;;;;;;1.54;46.70;102136.81;5030435;28;105822;-74
2022/03/18 03:13:52;;;;;;;22.90;10.50;;;;;;;1.49;46.41;102132.59;5030197;28;106232;-73
2022/03/18 03:16:19;;;;;;;18.50;10.05;;;;;;;1.47;46.13;102138.84;5029874;28;105972;-71
2022/03/18 03:18:45;;;;;;;24.02;11.15;;;;;;;1.42;46.42;102135.53;5029948;28;105943;-71
2022/03/18 03:21:11;;;;;;;19.45;9.80;;;;;;;1.41;46.39;102146.94;5025347;28;106145;-79
2022/03/18 03:23:36;;;;;;;17.02;9.73;;;;;;;1.38;46.27;102139.22;5019799;28;111531;-76
2022/03/18 03:26:02;;;;;;;19.98;9.85;;;;;;;1.34;46.44;102144.59;5017857;28;105862;-69
2022/03/18 03:28:27;;;;;;;17.33;10.02;;;;;;;1.31;46.50;102154.34;5019357;28;105871;-74
2022/03/18 03:30:52;;;;;;;20.23;11.32;;;;;;;1.25;46.40;102150.22;5020337;27;119909;-73
2022/03/18 03:33:18;;;;;;;18.83;10.27;;;;;;;1.21;46.43;102153.88;5024995;28;114490;-72
2022/03/18 03:35:44;;;;;;;23.67;11.00;;;;;;;1.18;46.55;102161.88;5009614;28;106186;-72
2022/03/18 03:38:10;;;;;;;21.35;11.50;;;;;;;1.15;46.66;102159.38;5009031;28;105939;-72
2022/03/18 03:40:36;;;;;;;20.83;11.05;;;;;;;1.11;46.52;102163.03;5009989;28;105963;-72
2022/03/18 03:43:02;;;;;;;20.70;10.45;;;;;;;1.07;46.92;102166.72;5009667;28;106053;-72
2022/03/18 03:45:28;;;;;;;18.92;10.57;;;;;;;1.03;46.61;102159.88;5009412;28;105978;-71
2022/03/18 03:47:53;;;;;;;18.52;9.68;;;;;;;0.99;46.67;102165.22;5010271;28;106246;-71
2022/03/18 03:50:19;;;;;;;20.73;11.13;;;;;;;0.97;46.85;102166.19;5009682;28;106153;-71
2022/03/18 03:52:44;;;;;;;18.70;10.80;;;;;;;0.95;47.05;102168.03;5009217;28;119905;-81
2022/03/18 03:55:12;;;;;;;20.42;10.18;;;;;;;0.92;46.80;102169.00;5008913;28;106014;-72
2022/03/18 03:57:38;;;;;;;16.48;10.32;;;;;;;0.89;46.92;102169.13;4991269;28;106281;-74
2022/03/18 04:00:05;;;;;;;17.50;11.02;;;;;;;0.86;46.87;102171.00;5008463;28;106352;-71
2022/03/18 04:02:31;;;;;;;16.55;9.93;;;;;;;0.82;46.98;102175.50;5009204;28;105986;-71
2022/03/18 04:04:57;;;;;;;18.55;11.10;;;;;;;0.77;46.85;102172.22;5008630;28;106029;-71
2022/03/18 04:07:25;;;;;;;19.17;10.48;;;;;;;0.75;46.75;102176.66;4991070;28;105902;-75
2022/03/18 04:09:51;;;;;;;19.17;10.80;;;;;;;0.72;46.79;102182.03;5008445;28;106212;-80
2022/03/18 04:12:17;;;;;;;21.15;10.57;;;;;;;0.69;47.28;102182.16;5007931;28;105826;-72
2022/03/18 04:14:42;;;;;;;20.45;10.88;;;;;;;0.65;46.90;102182.22;5008449;28;115225;-69
2022/03/18 04:17:07;;;;;;;20.75;10.23;;;;;;;0.61;47.07;102183.25;5008078;28;105908;-73
2022/03/18 04:19:33;;;;;;;16.88;9.50;;;;;;;0.58;47.12;102185.16;4991219;28;106737;-74
2022/03/18 04:21:58;;;;;;;17.05;10.90;;;;;;;0.54;47.46;102194.91;5009420;28;106517;-73
2022/03/18 04:24:23;;;;;;;18.38;9.80;;;;;;;0.49;47.40;102196.81;5008896;28;106496;-71
2022/03/18 04:26:49;;;;;;;18.02;10.07;;;;;;;0.44;46.92;102204.03;5009194;28;105978;-76
2022/03/18 04:29:14;;;;;;;18.50;10.80;;;;;;;0.39;47.33;102200.69;5008203;28;106136;-73
2022/03/18 04:31:40;;;;;;;18.45;10.32;;;;;;;0.33;47.40;102201.78;4988621;28;123004;-72
2022/03/18 04:34:05;;;;;;;18.25;9.88;;;;;;;0.29;47.96;102210.66;5007985;28;106060;-75
2022/03/18 04:36:31;;;;;;;19.60;10.25;;;;;;;0.25;47.83;102209.06;5009057;28;105915;-73
2022/03/18 04:38:56;;;;;;;16.85;9.77;;;;;;;0.21;47.37;102210.94;5008150;28;106167;-70
2022/03/18 04:41:22;;;;;;;23.75;10.63;;;;;;;0.17;47.67;102232.91;5007606;28;106053;-75
2022/03/18 04:43:48;;;;;;;19.95;10.73;;;;;;;0.13;47.64;102216.41;4989041;28;105945;-71
2022/03/18 04:46:13;;;;;;;22.52;12.13;;;;;;;0.08;48.29;102223.59;5008693;28;106270;-73
2022/03/18 04:48:39;;;;;;;16.08;9.73;;;;;;;0.06;48.21;102229.81;5008277;28;106161;-75
2022/03/18 04:51:04;;;;;;;17.95;10.90;;;;;;;0.03;47.97;102227.28;5007901;28;107409;-72
2022/03/18 04:53:29;;;;;;;20.38;11.05;;;;;;;0.01;48.52;102231.72;5007174;28;105824;-74
2022/03/18 04:55:55;;;;;;;21.75;11.25;;;;;;;-0.02;48.78;102233.53;5008710;28;105887;-73
2022/03/18 04:58:20;;;;;;;22.83;11.80;;;;;;;-0.03;48.45;102236.19;5007945;28;106106;-75
2022/03/18 05:00:45;;;;;;;20.95;11.40;;;;;;;-0.06;48.90;102239.78;5007900;28;106736;-69
2022/03/18 05:03:11;;;;;;;27.02;12.02;;;;;;;-0.07;48.54;102243.31;5008099;28;105939;-69
2022/03/18 05:05:37;;;;;;;19.52;10.70;;;;;;;-0.06;48.69;102241.53;5008768;28;106259;-69
2022/03/18 05:08:03;;;;;;;18.30;11.07;;;;;;;-0.04;48.74;102247.56;5008377;28;106127;-75
2022/03/18 05:10:29;;;;;;;22.63;11.63;;;;;;;-0.02;49.41;102243.16;5008167;28;105959;-73
2022/03/18 05:12:55;;;;;;;25.10;11.40;;;;;;;0.01;48.98;102247.44;5007730;28;106062;-71
2022/03/18 05:15:21;;;;;;;25.75;11.70;;;;;;;0.03;48.96;102246.50;5007243;28;105977;-72
2022/03/18 06:15:36;;;;;;;21.05;10.25;;;;;;;0.28;48.07;102316.44;4985992;28;106115;-73
2022/03/18 06:18:01;;;;;;;22.60;11.00;;;;;;;0.43;48.10;102315.06;4984147;28;107261;-71
2022/03/18 06:20:26;;;;;;;18.63;9.43;;;;;;;0.57;48.24;102320.69;4983661;28;106234;-75
2022/03/18 06:22:52;;;;;;;17.58;10.57;;;;;;;0.75;48.41;102320.94;4983905;28;115762;-74
2022/03/18 06:25:17;;;;;;;22.90;12.27;;;;;;;0.90;48.61;102328.28;4983023;28;117684;-74
2022/03/18 06:27:42;;;;;;;28.08;12.77;;;;;;;1.08;48.36;102325.91;4984690;28;106005;-74
2022/03/18 06:30:08;;;;;;;23.35;12.52;;;;;;;1.23;48.41;102333.22;4984081;28;106608;-72
2022/03/18 06:32:33;;;;;;;18.65;11.00;;;;;;;1.41;48.76;102341.31;4983610;28;106693;-72
2022/03/18 06:34:59;;;;;;;20.38;11.27;;;;;;;1.60;48.44;102338.84;4983531;28;105971;-75
2022/03/18 06:37:26;;;;;;;19.45;12.15;;;;;;;1.78;48.03;102342.53;4984961;28;105933;-74
2022/03/18 06:39:51;;;;;;;24.15;10.85;;;;;;;2.00;48.11;102337.28;4984483;28;106116;-75
2022/03/18 06:42:16;;;;;;;21.17;11.18;;;;;;;2.20;48.11;102349.59;4983729;28;116845;-75
2022/03/18 06:44:42;;;;;;;17.58;12.68;;;;;;;2.40;47.81;102353.19;4983934;28;116647;-71
2022/03/18 06:47:07;;;;;;;17.15;11.40;;;;;;;2.58;47.47;102355.03;4984965;28;105941;-72
2022/03/18 06:49:32;;;;;;;22.60;11.70;;;;;;;2.75;47.28;102354.34;4984301;28;106128;-78
2022/03/18 06:51:59;;;;;;;21.65;12.68;;;;;;;2.91;47.11;102362.41;4983318;28;106856;-74
2022/03/18 06:54:25;;;;;;;21.05;12.75;;;;;;;3.07;47.09;102357.34;4983686;28;105967;-75
2022/03/18 06:56:50;;;;;;;19.95;12.32;;;;;;;3.25;46.61;102366.19;4983489;28;106194;-70
2022/03/18 06:59:15;;;;;;;27.70;12.90;;;;;;;3.40;46.24;102364.63;4983798;28;105762;-68
2022/03/18 07:01:41;;;;;;;22.52;13.10;;;;;;;3.57;46.49;102366.50;4983004;28;106577;-72
2022/03/18 07:04:06;;;;;;;22.48;13.50;;;;;;;3.75;45.88;102369.22;4983511;28;106162;-71
2022/03/18 07:06:31;;;;;;;23.70;14.07;;;;;;;3.93;46.17;102370.13;4983778;28;105905;-73
2022/03/18 07:08:56;;;;;;;27.85;14.07;;;;;;;4.14;45.44;102381.41;4983817;28;106275;-70
2022/03/18 07:11:22;;;;;;;22.77;13.60;;;;;;;4.36;45.14;102383.84;4983385;28;108146;-74
2022/03/18 07:13:47;;;;;;;22.77;13.30;;;;;;;4.55;44.67;102394.34;4983108;28;106086;-70
2022/03/18 07:18:57;;;;;;;28.23;12.88;;;;;;;4.94;44.05;102398.53;4983177;28;106557;-76
2022/03/18 07:21:22;;;;;;;23.83;12.98;;;;;;;5.11;44.12;102405.56;4983010;28;105899;-73
2022/03/18 07:23:48;;;;;;;20.30;12.18;;;;;;;5.25;43.14;102413.66;4983112;28;106297;-73
2022/03/18 07:26:13;;;;;;;20.63;12.32;;;;;;;5.41;43.19;102404.88;4975092;28;106308;-73
2022/03/18 07:28:38;;;;;;;20.08;11.80;;;;;;;5.58;42.59;102404.00;4970139;28;106064;-73
2022/03/18 07:31:04;;;;;;;21.38;13.27;;;;;;;5.65;42.19;102405.38;4970073;28;106593;-73
2022/03/18 07:33:30;;;;;;;30.25;13.35;;;;;;;5.79;42.38;102407.25;4969890;28;106258;-75
2022/03/18 07:35:56;;;;;;;18.17;11.88;;;;;;;5.94;42.12;102413.47;4970549;28;105972;-76
2022/03/18 07:38:22;;;;;;;20.02;12.57;;;;;;;6.11;41.69;102407.28;4970457;28;106142;-75
2022/03/18 07:40:47;;;;;;;19.63;11.80;;;;;;;6.45;41.48;102410.63;4970208;28;105833;-77
2022/03/18 07:43:13;;;;;;;20.50;12.27;;;;;;;6.72;40.66;102413.47;4967968;28;106035;-74
2022/03/18 07:45:38;;;;;;;23.70;12.50;;;;;;;6.97;40.29;102422.63;4970482;28;105998;-74
2022/03/18 07:48:07;;;;;;;21.17;12.55;;;;;;;7.26;40.24;102417.38;4969714;28;106159;-75
2022/03/18 07:50:35;;;;;;;26.70;14.75;;;;;;;7.72;39.85;102418.94;4969624;28;105973;-73
2022/03/18 07:53:03;;;;;;;24.83;13.20;;;;;;;8.17;38.68;102427.56;4969173;28;106096;-74
2022/03/18 07:55:30;;;;;;;20.88;13.38;;;;;;;8.74;37.88;102428.31;4958717;28;105969;-73
2022/03/18 07:57:57;;;;;;;25.63;13.30;;;;;;;9.28;37.24;102421.97;4959265;28;105906;-74
2022/03/18 08:00:23;;;;;;;20.70;12.40;;;;;;;9.79;36.84;102432.56;4949672;28;106293;-73
2022/03/18 08:02:50;;;;;;;21.42;13.98;;;;;;;10.22;35.75;102430.41;4950234;28;105916;-74
2022/03/18 08:05:16;;;;;;;20.67;14.13;;;;;;;10.69;34.90;102435.84;4950601;28;106047;-73
2022/03/18 08:07:44;;;;;;;25.10;14.45;;;;;;;11.20;34.39;102445.31;4950175;28;106086;-76
2022/03/18 08:10:10;;;;;;;22.63;13.18;;;;;;;11.76;34.01;102441.81;4949498;28;105935;-75
2022/03/18 08:12:37;;;;;;;23.17;13.68;;;;;;;12.16;32.97;102430.59;4949526;28;106304;-73
2022/03/18 08:15:10;;;;;;;23.88;13.25;;;;;;;12.56;32.55;102426.44;4950007;28;106297;-74
2022/03/18 08:17:37;;;;;;;24.70;14.02;;;;;;;12.80;31.92;102434.22;4957271;28;106591;-72
2022/03/18 08:20:03;;;;;;;19.75;12.95;;;;;;;13.10;31.71;102445.97;4967690;28;108018;-73
2022/03/18 08:22:29;;;;;;;21.33;13.82;;;;;;;13.34;31.12;102445.66;4969070;28;105890;-72
2022/03/18 08:24:54;;;;;;;22.52;13.73;;;;;;;13.71;30.97;102445.16;4969967;28;106020;-75
2022/03/18 08:27:20;;;;;;;28.05;14.50;;;;;;;14.22;30.33;102446.81;4969211;28;105882;-76
2022/03/18 08:29:47;;;;;;;25.20;15.20;;;;;;;14.67;29.58;102450.81;4968863;28;106379;-74
2022/03/18 08:32:14;;;;;;;22.45;14.15;;;;;;;14.94;29.13;102453.75;4968101;28;105779;-71
2022/03/18 08:34:39;;;;;;;28.02;14.63;;;;;;;15.45;28.37;102457.88;4969171;28;105688;-72
2022/03/18 08:37:05;;;;;;;33.65;20.52;;;;;;;16.01;27.99;102466.00;4967815;28;106170;-72
2022/03/18 08:39:32;;;;;;;23.13;14.23;;;;;;;17.20;26.64;102460.34;4968627;28;106150;-72
2022/03/18 08:41:57;;;;;;;21.60;14.55;;;;;;;19.84;25.68;102468.72;4966574;28;106904;-74
2022/03/18 08:44:22;;;;;;;24.25;13.80;;;;;;;23.18;23.92;102471.69;4969513;28;106048;-72
2022/03/18 08:46:48;;;;;;;24.15;14.18;;;;;;;26.20;20.14;102472.72;4969099;28;106182;-69
2022/03/18 08:49:14;;;;;;;23.00;14.77;;;;;;;28.47;17.53;102482.31;4968810;28;106017;-69
2022/03/18 08:51:39;;;;;;;20.63;14.75;;;;;;;30.18;15.77;102487.72;4968638;28;106149;-70
2022/03/18 08:54:05;;;;;;;22.48;14.85;;;;;;;31.44;14.51;102493.00;4969170;28;105945;-74
2022/03/18 08:56:31;;;;;;;22.73;14.05;;;;;;;32.50;13.42;102490.88;4969178;28;106112;-75
2022/03/18 08:58:57;;;;;;;22.17;13.90;;;;;;;33.36;12.73;102495.31;4968777;28;106653;-76
2022/03/18 09:01:23;;;;;;;19.15;14.02;;;;;;;33.81;12.71;102500.50;4968942;28;106053;-75
2022/03/18 09:03:48;;;;;;;27.38;15.10;;;;;;;34.73;12.17;102511.66;4969525;28;105981;-76
2022/03/18 09:06:14;;;;;;;19.13;14.75;;;;;;;35.24;11.28;102507.13;4969123;28;106207;-76
2022/03/18 09:08:41;;;;;;;26.70;15.02;;;;;;;35.98;11.11;102507.38;4968478;28;106664;-76
2022/03/18 09:11:07;;;;;;;27.48;16.73;;;;;;;35.99;10.70;102514.59;4968664;28;106091;-78
2022/03/18 09:13:34;;;;;;;23.23;15.40;;;;;;;36.79;10.31;102518.09;4968627;28;105880;-76
2022/03/18 09:16:00;;;;;;;18.63;14.38;;;;;;;37.92;10.05;102514.00;4968119;28;105959;-71
2022/03/18 09:18:25;;;;;;;21.80;14.68;;;;;;;39.12;9.15;102512.78;4968072;28;106641;-75
2022/03/18 09:20:51;;;;;;;22.73;14.52;;;;;;;40.13;8.55;102510.06;4967873;28;105892;-70
2022/03/18 09:23:17;;;;;;;27.92;15.63;;;;;;;40.20;8.17;102521.59;4968707;28;106037;-69
2022/03/18 09:25:42;;;;;;;19.73;13.73;;;;;;;40.50;8.31;102525.59;4967785;28;106828;-77
2022/03/18 09:28:08;;;;;;;17.98;13.45;;;;;;;40.42;8.01;102527.19;4950328;28;106015;-76
2022/03/18 09:30:33;;;;;;;23.70;13.77;;;;;;;39.66;8.28;102532.63;4967969;28;107134;-76
2022/03/18 09:32:58;;;;;;;19.23;14.88;;;;;;;37.58;8.50;102536.44;4968478;28;106060;-74
2022/03/18 09:35:25;;;;;;;17.67;13.48;;;;;;;36.28;8.96;102533.25;4968724;28;106295;-73
2022/03/18 09:37:51;;;;;;;20.27;14.00;;;;;;;35.85;9.01;102532.97;4961870;28;106706;-80
2022/03/18 09:40:16;;;;;;;23.50;15.88;;;;;;;36.13;9.04;102533.34;4958862;28;105927;-70
2022/03/18 09:43:02;;;;;;;21.73;14.35;;;;;;;37.44;7.88;102533.53;4958226;28;106721;-70
2022/03/18 09:45:31;;;;;;;19.50;14.75;;;;;;;37.80;7.73;102530.31;4959253;28;106085;-72
2022/03/18 09:48:01;;;;;;;22.70;15.05;;;;;;;38.99;7.71;102526.41;4959688;28;106555;-71
2022/03/18 09:50:28;;;;;;;21.00;14.63;;;;;;;40.25;7.00;102529.84;4964596;28;106190;-70
2022/03/18 09:52:53;;;;;;;20.40;14.32;;;;;;;41.30;6.48;102529.56;4968524;28;106048;-72
2022/03/18 09:55:19;;;;;;;16.60;13.68;;;;;;;42.39;5.99;102537.09;4962094;28;106112;-68
2022/03/18 09:57:44;;;;;;;21.20;13.10;;;;;;;42.84;5.58;102537.78;4956138;28;106258;-69
2022/03/18 10:00:10;;;;;;;21.67;14.18;;;;;;;43.20;5.86;102542.06;4957372;28;106142;-68
2022/03/18 10:02:36;;;;;;;18.75;14.30;;;;;;;44.16;5.31;102543.38;4958474;28;106136;-70
2022/03/18 10:05:19;;;;;;;21.92;14.02;;;;;;;44.48;4.64;102541.72;4956522;28;106567;-70
2022/03/18 10:07:54;;;;;;;20.00;13.70;;;;;;;44.97;5.00;102548.63;4956305;28;106618;-71
2022/03/18 10:10:23;;;;;;;16.08;13.48;;;;;;;45.31;4.82;102546.50;4955923;28;106332;-71
2022/03/18 10:12:48;;;;;;;19.83;14.07;;;;;;;45.66;4.47;102549.63;4951148;28;106421;-72
2022/03/18 10:15:14;;;;;;;17.80;14.20;;;;;;;45.61;4.16;102555.50;4956626;28;106051;-73
2022/03/18 10:17:40;;;;;;;18.63;14.05;;;;;;;45.68;4.46;102563.34;4959089;28;106751;-72
2022/03/18 10:20:06;;;;;;;22.90;14.82;;;;;;;46.09;3.95;102559.31;4956793;28;106072;-75
2022/03/18 10:22:32;;;;;;;27.17;15.90;;;;;;;46.48;4.00;102563.59;4959573;28;105973;-76
2022/03/18 10:24:58;;;;;;;17.88;14.30;;;;;;;46.24;4.26;102560.56;4957665;28;106211;-80
2022/03/18 10:27:24;;;;;;;17.23;13.20;;;;;;;47.07;3.57;102559.09;4951904;28;106088;-72
2022/03/18 10:29:54;;;;;;;16.10;13.35;;;;;;;47.13;3.82;102564.06;4947450;28;106301;-72
2022/03/18 10:32:25;;;;;;;18.42;13.55;;;;;;;47.05;3.78;102556.63;4962551;28;105962;-72
2022/03/18 10:37:46;;;;;;;16.23;12.60;;;;;;;47.77;2.97;102552.63;4955892;28;106419;-76
2022/03/18 10:40:12;;;;;;;26.88;14.55;;;;;;;47.62;3.33;102559.94;4957234;28;106093;-80
2022/03/18 10:42:39;;;;;;;19.23;13.55;;;;;;;47.83;3.03;102555.16;4956284;28;106102;-78
2022/03/18 10:45:06;;;;;;;18.30;13.52;;;;;;;48.21;2.92;102550.69;4957823;28;106166;-72
2022/03/18 10:47:42;;;;;;;15.60;13.17;;;;;;;48.24;3.11;102558.41;4957664;28;106684;-72
2022/03/18 10:50:10;;;;;;;16.98;13.70;;;;;;;48.44;3.12;102553.53;4957022;28;106055;-73
2022/03/18 10:52:40;;;;;;;19.50;14.85;;;;;;;48.87;2.76;102547.78;4956773;28;106233;-73
2022/03/18 10:55:26;;;;;;;19.02;14.20;;;;;;;48.75;2.48;102558.13;4955549;28;106098;-72
2022/03/18 10:58:04;;;;;;;15.13;12.95;;;;;;;48.88;2.76;102555.91;4956117;28;106092;-79
2022/03/18 11:00:31;;;;;;;;;;;;;;;49.27;2.46;102550.06;4956665;28;106378;-76
2022/03/18 11:02:58;;;;;;;15.93;12.77;;;;;;;49.31;2.66;102555.78;4960217;28;106231;-74
2022/03/18 11:05:25;;;;;;;15.68;12.90;;;;;;;49.13;2.65;102555.47;4959951;28;106320;-75
2022/03/18 11:07:51;;;;;;;15.65;12.23;;;;;;;48.93;2.61;102557.63;4959597;28;106618;-77
2022/03/18 11:13:04;;;;;;;18.17;12.80;;;;;;;48.05;2.51;102543.09;4954605;28;106092;-73
2022/03/18 11:15:31;;;;;;;15.32;12.15;;;;;;;48.11;2.44;102544.41;4950660;28;106346;-74
2022/03/18 11:17:57;;;;;;;15.32;11.27;;;;;;;48.18;2.68;102548.63;4960862;28;107464;-78
2022/03/18 11:20:27;;;;;;;18.65;11.98;;;;;;;48.26;2.08;102548.34;4969680;28;105888;-73
2022/03/18 11:22:53;;;;;;;18.13;12.18;;;;;;;48.91;2.19;102554.34;4968071;28;106140;-80
2022/03/18 11:25:19;;;;;;;17.88;12.40;;;;;;;49.23;2.01;102552.03;4960871;28;106240;-79
2022/03/18 11:27:46;;;;;;;14.20;11.90;;;;;;;49.47;1.81;102547.06;4958854;28;106216;-78
2022/03/18 11:30:19;;;;;;;14.55;12.25;;;;;;;49.75;1.79;102552.31;4959881;28;106232;-79
2022/03/18 11:33:04;;;;;;;17.10;11.90;;;;;;;50.17;1.85;102552.38;4967818;28;106018;-73
2022/03/18 11:35:50;;;;;;;14.00;10.65;;;;;;;50.38;1.21;102544.09;4960217;28;106299;-73
2022/03/18 11:38:25;;;;;;;12.60;10.02;;;;;;;50.51;1.82;102546.63;4958660;28;106049;-73
2022/03/18 11:41:03;;;;;;;15.38;10.50;;;;;;;51.16;1.13;102547.94;4961161;28;106106;-73
2022/03/18 11:43:32;;;;;;;15.02;10.25;;;;;;;51.45;1.49;102554.59;4970517;28;105878;-77
2022/03/18 11:46:13;;;;;;;13.07;10.25;;;;;;;51.99;1.24;102565.34;4970471;28;106095;-75
2022/03/18 11:48:49;;;;;;;13.15;9.55;;;;;;;51.42;1.40;102565.94;4969137;28;106620;-78
2022/03/18 11:51:29;;;;;;;12.85;9.20;;;;;;;50.78;0.90;102561.47;4970882;28;106033;-82
2022/03/18 11:54:05;;;;;;;17.25;9.85;;;;;;;49.63;1.46;102555.41;4970792;28;106107;-81
2022/03/18 11:56:39;;;;;;;15.02;9.85;;;;;;;47.05;1.88;102553.81;4969812;28;106438;-73
2022/03/18 11:59:31;;;;;;;13.63;9.27;;;;;;;45.62;2.54;102557.16;4969512;28;106745;-77
2022/03/18 12:02:00;;;;;;;13.45;10.75;;;;;;;44.33;3.04;102554.44;4970050;28;106123;-77
2022/03/18 12:04:36;;;;;;;13.50;10.85;;;;;;;43.15;3.02;102547.91;4970291;28;106070;-77
2022/03/18 12:07:18;;;;;;;17.50;10.52;;;;;;;42.53;3.11;102548.09;4969900;28;105918;-73
2022/03/18 12:09:47;;;;;;;15.90;10.90;;;;;;;42.64;3.16;102554.19;4969484;28;107909;-77
2022/03/18 12:12:17;;;;;;;13.55;10.40;;;;;;;42.69;3.40;102550.38;4968967;28;106238;-75
2022/03/18 12:14:43;;;;;;;13.70;10.48;;;;;;;43.29;3.33;102545.66;4969383;28;106096;-71
2022/03/18 12:17:09;;;;;;;13.43;10.75;;;;;;;43.57;2.92;102545.19;4969200;28;106274;-71
2022/03/18 12:19:36;;;;;;;14.07;10.90;;;;;;;44.03;2.97;102546.16;4968943;28;106527;-71
2022/03/18 12:22:02;;;;;;;15.77;10.18;;;;;;;43.90;3.08;102541.66;4968834;28;106132;-71
2022/03/18 12:24:32;;;;;;;16.10;10.05;;;;;;;43.18;3.06;102555.63;4969570;28;105838;-74